Aviation Digital Data Service (ADDS)

Output produced by METARs form (0954 UTC 07 December 2022)
found at http://aviationweather.gov/metar/data/
 
METAR text: EPRZ 070930Z 22011KT 9999 -RA BKN009 02/01 Q1010
Conditions at: EPRZ (RZESZOW/JASIONKA, PL) observed 0930 UTC 07 December 2022
Temperature: 2.0°C (36°F)
Dewpoint: 1.0°C (34°F) [RH = 93%]
Pressure (altimeter): 29.82 inches Hg (1010.0 mb)
Winds: from the SW (220 degrees) at 13 MPH (11 knots; 5.7 m/s)
Visibility: 6 or more miles (10+ km)
Ceiling: 900 feet AGL
Clouds: broken clouds at 900 feet AGL
Weather: -RA  (light rain)

METAR text: EPRZ 070900Z 22011KT 9999 -RA BKN009 OVC020 02/01 Q1010
Conditions at: EPRZ (RZESZOW/JASIONKA, PL) observed 0900 UTC 07 December 2022
Temperature: 2.0°C (36°F)
Dewpoint: 1.0°C (34°F) [RH = 93%]
Pressure (altimeter): 29.82 inches Hg (1010.0 mb)
Winds: from the SW (220 degrees) at 13 MPH (11 knots; 5.7 m/s)
Visibility: 6 or more miles (10+ km)
Ceiling: 900 feet AGL
Clouds: broken clouds at 900 feet AGL
overcast cloud deck at 2000 feet AGL
Weather: -RA  (light rain)

Forecast for: COR
Text: TAF COR EPRZ 070658Z 0706/0806 25010KT 5000 -RA BR BKN007 OVC012
Forecast period: 0600 to 0800 UTC 07 December 2022
Forecast type: FROM: standard forecast or significant change
Winds: from the WSW (250 degrees) at 12 MPH (10 knots; 5.1 m/s)
Visibility: 3 miles (5 km)
Ceiling: 700 feet AGL
Clouds: broken clouds at 700 feet AGL
overcast cloud deck at 1200 feet AGL
Weather: -RA BR  (light rain, mist)
Text: BECMG 0708/0710 BKN013
Forecast period: 0800 to 1700 UTC 07 December 2022
Forecast type: BECOMING: Conditions expected to become as follows by 1000 UTC 07 December 2022
Winds: from the WSW (250 degrees) at 12 MPH (10 knots; 5.1 m/s)
Visibility: 3 miles (5 km)
Ceiling: 1300 feet AGL
Clouds: broken clouds at 1300 feet AGL
Weather: -RA BR  (light rain, mist)
Text: TEMPO 0710/0717 23015G25KT 2000 SHSNRA BKN004 BKN010CB
Forecast period: 1000 to 1700 UTC 07 December 2022
Forecast type: TEMPORARY: The following changes expected for less than half the time period
Winds: from the SW (230 degrees) at 17 MPH (15 knots; 7.7 m/s)
gusting to 29 MPH (25 knots; 12.9 m/s)
Visibility: 1.24 miles (2.00 km)
Ceiling: 400 feet AGL
Clouds: broken clouds at 400 feet AGL
broken clouds at 1000 feet AGL
Weather: SHSN SHRA  (snow showers, rain showers)
Text: BECMG 0717/0720 SCT020
Forecast period: 1700 UTC 07 December 2022 to 0600 UTC 08 December 2022
Forecast type: BECOMING: Conditions expected to become as follows by 2000 UTC 07 December 2022
Winds: from the WSW (250 degrees) at 12 MPH (10 knots; 5.1 m/s)
Visibility: 3 miles (5 km)
Ceiling: at least 12,000 feet AGL
Clouds: scattered clouds at 2000 feet AGL
Weather: -RA BR  (light rain, mist)